Airfield :
LOGIN :

Register | Disclaimer

   EN    FR    IT 

 










Legend :    VFR   Marginal VFR   IFR   Intensive IFR   Very Intensive IFR
Visi :
Ceiling :
>= 8 km
>= 3000ft
5 to 8 km
1000 to 3000 ft
1500m to 5 km
500 to 1000 ft
800 to 1500m
200 to 500 ft
< 800m
< 200 ft
Symbols :   Thunderstorms  Fog  Heavy snow  Heavy precipitations  Wind > 20 kt
SIGMETs :     Misc.  Thunderstorms  Icing  Turbulence  Mountain Waves  Volcanic Ashes






- Airport Elevation : 7 ft
- IATA code : XHE


LFTH - Hyeres

CURRENT METAR :
  • 251100Z AUTO 15012KT 9999 BKN022 21/16 Q1014 NOSIG

EXPIRED METARs :
  • 251030Z AUTO 15010KT 9999 FEW019 BKN026 OVC032 21/16 Q1015 NOSIG
  • 251000Z AUTO 16011KT 9999 BKN025 BKN031 21/16 Q1015 TEMPO BKN014
  • 250930Z AUTO 15008KT 110V180 9999 OVC021 20/16 Q1015 TEMPO BKN014
  • 250900Z AUTO 15009KT 9999 BKN018 BKN024 OVC031 20/16 Q1015 TEMPO 09010KT BKN014
  • 250830Z AUTO VRB02KT 9999 OVC017 16/14 Q1015 TEMPO BKN014

TAF TAF LFTH
Valid from the 25 at 09:00 until the 26 at 09:00 UTC


250800Z 2509/2609 09010KT 9999 BKN020
TEMPO 2509/2511 BKN014
BECMG 2510/2512 16010KT
TEMPO 2605/2609 26010KT 4000 RA BKN014 BKN020TCU
PROB40
TEMPO 2605/2609 VRB15G25KT 2000 TSRA BKN020CB



MET'MAP, your aeronautical weather chart ! - Copyright ORBIFLY December 2007 - Disclaimer

ORBIFLY MET'MAP TEAM :

Programming & Development : Alexandra Zaïnal
Concept & original design : Baudouin d'Aumeries
Assistance for programming : Marc-Olivier Méhu
Technical & hardware support : Manuel Goepfert

Contact : metmap@orbifly.com




SOURCES & CREDITS :

   NOAA